createdAt,value
2023-05-15T00:00:19.251Z,0.09
2023-05-15T00:01:20.936Z,0.09
2023-05-15T00:02:20.701Z,0.09
2023-05-15T00:02:32.361Z,0.09
2023-05-15T00:03:32.888Z,0.09
2023-05-15T00:04:33.364Z,0.09
2023-05-15T00:05:33.946Z,0.09
2023-05-15T00:06:34.736Z,0.09
2023-05-15T00:07:35.165Z,0.09
2023-05-15T00:08:35.605Z,0.09
2023-05-15T00:09:36.164Z,0.09
2023-05-15T00:10:36.818Z,0.09
2023-05-15T00:11:37.203Z,0.09
2023-05-15T00:12:38.086Z,0.09
2023-05-15T00:13:38.826Z,0.09
2023-05-15T00:14:39.487Z,0.09
2023-05-15T00:15:40.356Z,0.09
2023-05-15T00:16:41.358Z,0.13
2023-05-15T00:17:41.824Z,0.13
2023-05-15T00:18:42.486Z,0.09
2023-05-15T00:19:43.515Z,0.09
2023-05-15T00:20:43.451Z,0.09
2023-05-15T00:21:44.286Z,0.09
2023-05-15T00:22:44.347Z,0.09
2023-05-15T00:23:45.135Z,0.09
2023-05-15T00:24:45.793Z,0.09
2023-05-15T00:25:46.515Z,0.09
2023-05-15T00:26:47.438Z,0.09
2023-05-15T00:27:47.484Z,0.09
2023-05-15T00:28:48.428Z,0.09
2023-05-15T00:29:49.012Z,0.09
2023-05-15T00:30:49.524Z,0.09
2023-05-15T00:31:50.166Z,0.09
2023-05-15T00:32:50.949Z,0.09
2023-05-15T00:33:51.369Z,0.09
2023-05-15T00:34:00.060Z,0.09
2023-05-15T00:35:00.610Z,0.09
2023-05-15T00:36:01.097Z,0.09
2023-05-15T00:37:01.616Z,0.09
2023-05-15T00:38:02.082Z,0.09
2023-05-15T00:39:02.381Z,0.09
2023-05-15T00:40:02.925Z,0.09
2023-05-15T00:41:03.343Z,0.09
2023-05-15T00:42:04.166Z,0.09
2023-05-15T00:43:04.686Z,0.09
2023-05-15T00:44:05.178Z,0.09
2023-05-15T00:45:06.262Z,0.09
2023-05-15T00:46:05.736Z,0.09
2023-05-15T00:47:06.361Z,0.09
2023-05-15T00:48:06.840Z,0.09
2023-05-15T00:49:07.049Z,0.09
2023-05-15T00:50:07.974Z,0.09
2023-05-15T00:51:11.408Z,0.09
2023-05-15T00:52:09.616Z,0.09
2023-05-15T00:53:10.167Z,0.09
2023-05-15T00:54:11.035Z,0.09
2023-05-15T00:55:11.736Z,0.09
2023-05-15T00:56:12.449Z,0.09
2023-05-15T00:57:14.005Z,0.09
2023-05-15T00:58:13.800Z,0.09
2023-05-15T00:59:14.278Z,0.09
2023-05-15T01:00:15.078Z,0.09
2023-05-15T01:01:15.126Z,0.09
2023-05-15T01:02:15.885Z,0.09
2023-05-15T01:03:16.553Z,0.09
2023-05-15T01:04:18.157Z,0.09
2023-05-15T01:05:17.918Z,0.09
2023-05-15T01:05:27.268Z,0.09
2023-05-15T01:06:27.706Z,0.06
2023-05-15T01:07:28.603Z,0.09
2023-05-15T01:08:29.534Z,0.09
2023-05-15T01:09:30.210Z,0.09
2023-05-15T01:10:30.916Z,0.09
2023-05-15T01:11:30.891Z,0.09
2023-05-15T01:12:31.617Z,0.09
2023-05-15T01:13:32.260Z,0.06
2023-05-15T01:14:32.635Z,0.09
2023-05-15T01:15:33.583Z,0.09
2023-05-15T01:16:34.201Z,0.09
2023-05-15T01:17:34.509Z,0.09
2023-05-15T01:18:35.297Z,0.09
2023-05-15T01:19:36.006Z,0.09
2023-05-15T01:20:36.798Z,0.09
2023-05-15T01:21:37.569Z,0.09
2023-05-15T01:22:38.125Z,0.09
2023-05-15T01:23:38.200Z,0.09
2023-05-15T01:24:38.882Z,0.09
2023-05-15T01:25:39.409Z,0.09
2023-05-15T01:26:39.609Z,0.09
2023-05-15T01:27:40.153Z,0.09
2023-05-15T01:28:40.683Z,0.09
2023-05-15T01:29:41.184Z,0.09
2023-05-15T01:30:41.711Z,0.09
2023-05-15T01:31:42.243Z,0.09
2023-05-15T01:32:42.963Z,0.09
2023-05-15T01:33:43.525Z,0.09
2023-05-15T01:34:44.050Z,0.09
2023-05-15T01:35:44.618Z,0.09
2023-05-15T01:36:45.524Z,0.09
2023-05-15T01:36:54.583Z,0.09
2023-05-15T01:37:55.506Z,0.09
2023-05-15T01:38:55.539Z,0.09
2023-05-15T01:39:56.354Z,0.09
2023-05-15T01:40:57.299Z,0.09
2023-05-15T01:41:57.869Z,0.09
2023-05-15T01:42:58.405Z,0.09
2023-05-15T01:43:59.146Z,0.09
2023-05-15T01:44:59.753Z,0.09
2023-05-15T01:46:00.615Z,0.09
2023-05-15T01:47:01.197Z,0.09
2023-05-15T01:48:01.865Z,0.09
2023-05-15T01:49:02.621Z,0.09
2023-05-15T01:50:02.625Z,0.09
2023-05-15T01:51:03.378Z,0.09
2023-05-15T01:52:04.123Z,0.09
2023-05-15T01:53:04.712Z,0.09
2023-05-15T01:54:05.459Z,0.09
2023-05-15T01:55:05.508Z,0.09
2023-05-15T01:56:06.029Z,0.09
2023-05-15T01:57:06.887Z,0.09
2023-05-15T01:58:07.473Z,0.09
2023-05-15T01:59:07.722Z,0.09
2023-05-15T02:00:08.250Z,0.09
2023-05-15T02:01:08.896Z,0.09
2023-05-15T02:02:09.508Z,0.09
2023-05-15T02:03:10.206Z,0.09
2023-05-15T02:04:10.686Z,0.09
2023-05-15T02:05:11.582Z,0.09
2023-05-15T02:06:12.048Z,0.09
2023-05-15T02:07:12.615Z,0.09
2023-05-15T02:08:13.142Z,0.09
2023-05-15T02:09:13.667Z,0.09
2023-05-15T02:10:14.153Z,0.09
2023-05-15T02:10:24.829Z,0.09
2023-05-15T02:11:24.936Z,0.09
2023-05-15T02:12:25.580Z,0.09
2023-05-15T02:13:26.149Z,0.09
2023-05-15T02:14:26.648Z,0.09
2023-05-15T02:15:27.442Z,0.09
2023-05-15T02:16:28.118Z,0.09
2023-05-15T02:17:28.158Z,0.09
2023-05-15T02:18:29.030Z,0.09
2023-05-15T02:19:29.012Z,0.09
2023-05-15T02:20:30.065Z,0.06
2023-05-15T02:21:29.743Z,0.09
2023-05-15T02:22:30.436Z,0.09
2023-05-15T02:23:31.354Z,0.09
2023-05-15T02:24:31.983Z,0.09
2023-05-15T02:25:33.671Z,0.09
2023-05-15T02:26:33.431Z,0.09
2023-05-15T02:27:34.035Z,0.09
2023-05-15T02:28:35.814Z,0.09
2023-05-15T02:29:35.320Z,0.09
2023-05-15T02:30:35.911Z,0.09
2023-05-15T02:31:36.508Z,0.09
2023-05-15T02:32:37.021Z,0.09
2023-05-15T02:33:37.068Z,0.09
2023-05-15T02:34:37.909Z,0.09
2023-05-15T02:35:38.579Z,0.09
2023-05-15T02:36:39.129Z,0.09
2023-05-15T02:37:39.649Z,0.09
2023-05-15T02:38:40.020Z,0.09
2023-05-15T02:39:40.546Z,0.09
2023-05-15T02:40:41.061Z,0.09
2023-05-15T02:40:50.823Z,0.09
2023-05-15T02:41:50.812Z,0.13
2023-05-15T02:42:52.456Z,0.13
2023-05-15T02:43:52.001Z,0.13
2023-05-15T02:44:52.479Z,0.09
2023-05-15T02:45:53.064Z,0.09
2023-05-15T02:46:53.648Z,0.13
2023-05-15T02:47:54.324Z,0.09
2023-05-15T02:48:54.325Z,0.09
2023-05-15T02:49:55.115Z,0.09
2023-05-15T02:50:55.949Z,0.09
2023-05-15T02:51:56.750Z,0.09
2023-05-15T02:52:57.410Z,0.13
2023-05-15T02:53:58.112Z,0.09
2023-05-15T02:54:58.882Z,0.09
2023-05-15T02:55:59.624Z,0.09
2023-05-15T02:56:59.670Z,0.09
2023-05-15T02:58:00.347Z,0.13
2023-05-15T02:59:01.259Z,0.09
2023-05-15T03:00:01.363Z,0.13
2023-05-15T03:01:01.492Z,0.13
2023-05-15T03:02:02.031Z,0.09
2023-05-15T03:03:02.198Z,0.13
2023-05-15T03:04:02.340Z,0.09
2023-05-15T03:05:02.543Z,0.16
2023-05-15T03:06:03.191Z,0.09
2023-05-15T03:07:03.797Z,0.13
2023-05-15T03:08:04.396Z,0.13
2023-05-15T03:09:04.931Z,0.13
2023-05-15T03:10:05.602Z,0.13
2023-05-15T03:11:06.351Z,0.13
2023-05-15T03:12:07.068Z,0.13
2023-05-15T03:12:16.220Z,0.13
2023-05-15T03:13:16.544Z,0.13
2023-05-15T03:14:17.359Z,0.13
2023-05-15T03:15:18.091Z,0.13
2023-05-15T03:16:19.104Z,0.13
2023-05-15T03:17:19.470Z,0.13
2023-05-15T03:18:19.879Z,0.13
2023-05-15T03:19:20.242Z,0.13
2023-05-15T03:20:20.466Z,0.13
2023-05-15T03:24:17.222Z,0.13
2023-05-15T03:25:17.985Z,0.13
2023-05-15T03:26:18.095Z,0.13
2023-05-15T03:27:18.867Z,0.13
2023-05-15T03:28:19.592Z,0.13
2023-05-15T03:29:20.242Z,0.13
2023-05-15T03:30:20.974Z,0.13
2023-05-15T03:31:21.839Z,0.13
2023-05-15T03:32:22.472Z,0.13
2023-05-15T03:33:22.937Z,0.13
2023-05-15T03:34:23.664Z,0.13
2023-05-15T03:35:24.102Z,0.13
2023-05-15T03:36:24.022Z,0.13
2023-05-15T03:37:24.769Z,0.23
2023-05-15T03:38:25.271Z,0.13
2023-05-15T03:39:25.456Z,0.13
2023-05-15T03:40:26.038Z,0.16
2023-05-15T03:41:26.310Z,0.16
2023-05-15T03:42:27.785Z,0.16
2023-05-15T03:43:27.453Z,0.16
2023-05-15T03:44:27.976Z,0.16
2023-05-15T03:45:28.775Z,0.16
2023-05-15T05:37:27.725Z,0.38
2023-05-15T05:38:27.678Z,0.34
2023-05-15T05:39:28.053Z,0.38
2023-05-15T05:40:28.845Z,0.38
2023-05-15T05:41:29.365Z,0.38
2023-05-15T05:42:29.915Z,0.34
2023-05-15T05:43:30.571Z,0.34
2023-05-15T05:44:31.150Z,0.38
2023-05-15T05:45:31.642Z,0.38
2023-05-15T05:50:15.508Z,0.38
2023-05-15T05:51:16.237Z,0.38
2023-05-15T05:52:17.064Z,0.41
2023-05-15T05:53:17.651Z,0.41
2023-05-15T05:54:18.517Z,0.38
2023-05-15T05:55:19.171Z,0.38
2023-05-15T05:56:19.937Z,0.41
2023-05-15T05:57:20.243Z,0.41
2023-05-15T05:58:25.475Z,0.41
2023-05-15T05:59:21.314Z,0.41
2023-05-15T06:00:21.826Z,0.41
2023-05-15T06:01:22.456Z,0.45
2023-05-15T06:02:23.444Z,0.41
2023-05-15T06:03:23.130Z,0.41
2023-05-15T06:04:23.653Z,0.41
2023-05-15T06:05:24.442Z,0.41
2023-05-15T06:06:24.867Z,0.41
2023-05-15T06:07:25.259Z,0.41
2023-05-15T06:08:25.819Z,0.41
2023-05-15T06:08:34.486Z,0.41
2023-05-15T06:09:34.943Z,0.41
2023-05-15T06:10:35.556Z,0.41
2023-05-15T06:11:36.095Z,0.41
2023-05-15T06:12:36.976Z,0.41
2023-05-15T06:13:37.484Z,0.41
2023-05-15T06:14:37.997Z,0.41
2023-05-15T06:15:38.537Z,0.41
2023-05-15T06:16:39.206Z,0.41
2023-05-15T06:17:39.739Z,0.41
2023-05-15T06:18:40.246Z,0.41
2023-05-15T06:19:40.768Z,0.41
2023-05-15T06:20:41.341Z,0.41
2023-05-15T06:21:41.958Z,0.41
2023-05-15T06:22:42.515Z,0.45
2023-05-15T06:23:43.131Z,0.45
2023-05-15T06:24:43.828Z,0.45
2023-05-15T06:25:44.440Z,0.45
2023-05-15T06:26:45.037Z,0.48
2023-05-15T06:27:45.619Z,0.45
2023-05-15T06:28:46.194Z,0.45
2023-05-15T06:29:46.671Z,0.45
2023-05-15T06:30:47.223Z,0.48
2023-05-15T06:31:47.753Z,0.45
2023-05-15T06:32:48.618Z,0.41
2023-05-15T06:33:49.270Z,0.41
2023-05-15T06:34:49.783Z,0.45
2023-05-15T06:35:50.539Z,0.45
2023-05-15T06:36:51.094Z,0.45
2023-05-15T06:37:52.574Z,0.48
2023-05-15T06:38:52.398Z,0.45
2023-05-15T06:39:00.997Z,0.45
2023-05-15T06:40:01.524Z,0.45
2023-05-15T06:41:02.164Z,0.45
2023-05-15T06:42:02.771Z,0.45
2023-05-15T06:43:03.659Z,0.45
2023-05-15T06:44:04.207Z,0.45
2023-05-15T06:45:04.774Z,0.48
2023-05-15T06:46:05.366Z,0.48
2023-05-15T06:47:06.188Z,0.52
2023-05-15T06:48:06.553Z,0.59
2023-05-15T06:49:07.024Z,0.59
2023-05-15T06:50:07.573Z,0.59
2023-05-15T06:51:08.067Z,0.59
2023-05-15T06:52:08.626Z,0.59
2023-05-15T06:53:09.122Z,0.59
2023-05-15T06:54:09.634Z,0.66
2023-05-15T06:55:10.268Z,0.70
2023-05-15T06:56:10.826Z,0.59
2023-05-15T06:57:11.423Z,0.59
2023-05-15T06:58:11.624Z,0.59
2023-05-15T06:59:12.193Z,0.59
2023-05-15T07:00:12.729Z,0.55
2023-05-15T07:01:13.384Z,0.59
2023-05-15T07:02:14.053Z,0.59
2023-05-15T07:03:14.523Z,0.48
2023-05-15T07:04:57.859Z,0.48
2023-05-15T07:05:58.416Z,0.45
2023-05-15T07:06:58.994Z,0.45
2023-05-15T07:08:00.068Z,0.59
2023-05-15T07:08:59.574Z,0.66
2023-05-15T07:10:00.563Z,0.66
2023-05-15T07:10:09.234Z,0.66
2023-05-15T07:11:09.825Z,0.66
2023-05-15T07:12:10.322Z,0.59
2023-05-15T07:13:10.695Z,0.55
2023-05-15T07:14:11.273Z,0.52
2023-05-15T07:15:11.856Z,0.48
2023-05-15T07:16:12.376Z,0.48
2023-05-15T07:17:12.651Z,0.45
2023-05-15T07:18:13.419Z,0.45
2023-05-15T07:19:14.001Z,0.41
2023-05-15T07:20:14.533Z,0.41
2023-05-15T07:21:15.293Z,0.45
2023-05-15T07:22:15.891Z,0.41
2023-05-15T07:23:16.480Z,0.41
2023-05-15T07:24:17.054Z,0.45
2023-05-15T07:25:17.710Z,0.45
2023-05-15T07:26:28.733Z,0.45
2023-05-15T07:27:18.926Z,0.45
2023-05-15T07:28:19.510Z,0.41
2023-05-15T07:29:20.186Z,0.38
2023-05-15T07:30:20.832Z,0.38
2023-05-15T07:31:21.393Z,0.34
2023-05-15T07:32:21.650Z,0.34
2023-05-15T07:33:22.546Z,0.34
2023-05-15T07:34:23.143Z,0.34
2023-05-15T07:35:23.923Z,0.34
2023-05-15T07:36:24.325Z,0.34
2023-05-15T07:37:25.268Z,0.34
2023-05-15T07:38:25.951Z,0.38
2023-05-15T07:39:26.588Z,0.38
2023-05-15T07:40:27.008Z,0.38
2023-05-15T07:41:27.172Z,0.38
2023-05-15T07:41:35.893Z,0.38
2023-05-15T07:42:36.394Z,0.38
2023-05-15T07:43:37.012Z,0.45
2023-05-15T07:44:37.748Z,0.41
2023-05-15T07:45:38.342Z,0.41
2023-05-15T07:46:39.317Z,0.41
2023-05-15T07:47:39.818Z,0.45
2023-05-15T07:48:40.531Z,0.41
2023-05-15T07:49:41.036Z,0.45
2023-05-15T07:50:41.916Z,0.45
2023-05-15T07:51:42.882Z,0.52
2023-05-15T07:52:43.786Z,0.48
2023-05-15T07:53:44.468Z,0.48
2023-05-15T07:54:45.459Z,0.48
2023-05-15T07:55:46.622Z,0.48
2023-05-15T07:56:46.118Z,0.45
2023-05-15T07:57:53.386Z,0.48
2023-05-15T07:58:47.379Z,0.48
2023-05-15T07:59:47.859Z,0.48
2023-05-15T08:00:47.856Z,0.55
2023-05-15T08:01:48.661Z,0.59
2023-05-15T08:02:49.444Z,0.59
2023-05-15T08:03:50.093Z,0.59
2023-05-15T08:04:50.623Z,0.59
2023-05-15T08:05:50.901Z,0.59
2023-05-15T08:06:51.608Z,0.59
2023-05-15T08:07:52.157Z,0.59
2023-05-15T08:08:52.422Z,0.59
2023-05-15T08:09:52.490Z,0.59
2023-05-15T08:10:52.840Z,0.59
2023-05-15T08:11:53.694Z,0.66
2023-05-15T08:12:54.162Z,0.66
2023-05-15T08:13:54.741Z,0.70
2023-05-15T08:14:21.344Z,0.70
2023-05-15T08:15:15.030Z,0.70
2023-05-15T08:16:13.221Z,0.70
2023-05-15T08:17:13.478Z,0.70
2023-05-15T08:18:14.237Z,0.73
2023-05-15T08:19:14.984Z,0.80
2023-05-15T08:20:15.655Z,0.80
2023-05-15T08:21:16.411Z,0.77
2023-05-15T08:22:17.368Z,0.80
2023-05-15T08:23:17.398Z,0.70
2023-05-15T08:24:18.191Z,0.70
2023-05-15T08:25:18.513Z,0.70
2023-05-15T08:26:19.070Z,0.77
2023-05-15T08:27:24.445Z,0.73
2023-05-15T08:28:20.505Z,0.73
2023-05-15T08:29:23.717Z,0.73
2023-05-15T08:30:22.266Z,0.70
2023-05-15T08:32:06.807Z,0.59
2023-05-15T08:33:07.759Z,0.59
2023-05-15T08:34:08.182Z,0.55
2023-05-15T08:35:08.612Z,0.59
2023-05-15T08:36:09.538Z,0.55
2023-05-15T08:37:12.637Z,0.59
2023-05-15T08:38:10.210Z,0.66
2023-05-15T08:39:12.086Z,0.70
2023-05-15T08:40:11.693Z,0.70
2023-05-15T08:41:14.270Z,0.59
2023-05-15T08:42:12.016Z,0.66
2023-05-15T08:43:12.036Z,0.59
2023-05-15T08:44:12.065Z,0.52
2023-05-15T08:45:12.716Z,0.52
2023-05-15T08:46:13.559Z,0.55
2023-05-15T08:47:14.125Z,0.48
2023-05-15T08:47:23.780Z,0.59
2023-05-15T08:48:24.573Z,0.59
2023-05-15T08:49:25.033Z,0.59
2023-05-15T08:50:25.694Z,0.66
2023-05-15T08:51:26.614Z,0.70
2023-05-15T08:52:28.299Z,0.73
2023-05-15T08:53:28.289Z,0.77
2023-05-15T08:54:28.552Z,0.95
2023-05-15T08:55:29.527Z,1.09
2023-05-15T08:56:30.130Z,1.34
2023-05-15T08:57:30.280Z,1.55
2023-05-15T08:58:31.080Z,1.37
2023-05-15T08:59:31.815Z,1.44
2023-05-15T09:00:32.281Z,1.30
2023-05-15T09:01:32.980Z,1.02
2023-05-15T09:02:33.457Z,1.02
2023-05-15T09:03:34.149Z,1.02
2023-05-15T09:04:34.590Z,0.84
2023-05-15T09:05:35.678Z,0.77
2023-05-15T09:06:35.908Z,0.73
2023-05-15T09:07:36.691Z,0.73
2023-05-15T09:08:37.414Z,0.77
2023-05-15T09:09:38.140Z,0.80
2023-05-15T09:10:38.799Z,0.80
2023-05-15T09:11:39.450Z,0.84
2023-05-15T09:12:39.540Z,0.91
2023-05-15T09:13:40.290Z,1.12
2023-05-15T09:14:40.839Z,1.12
2023-05-15T09:15:41.444Z,1.12
2023-05-15T09:16:42.194Z,1.09
2023-05-15T09:17:43.170Z,0.95
2023-05-15T09:18:43.772Z,0.98
2023-05-15T09:19:44.593Z,0.98
2023-05-15T09:19:53.257Z,0.95
2023-05-15T09:20:56.061Z,0.88
2023-05-15T09:21:54.575Z,0.80
2023-05-15T09:22:55.467Z,0.80
2023-05-15T09:23:56.381Z,0.77
2023-05-15T09:24:57.351Z,0.77
2023-05-15T09:25:57.997Z,0.77
2023-05-15T09:26:58.044Z,0.84
2023-05-15T09:27:58.607Z,0.95
2023-05-15T09:28:59.164Z,1.02
2023-05-15T09:29:59.820Z,1.20
2023-05-15T09:33:31.642Z,1.30
2023-05-15T09:34:31.730Z,1.27
2023-05-15T09:35:32.383Z,1.27
2023-05-15T09:36:44.918Z,1.20
2023-05-15T09:37:45.553Z,1.16
2023-05-15T09:38:46.166Z,1.27
2023-05-15T09:39:46.881Z,1.23
2023-05-15T09:40:47.457Z,1.12
2023-05-15T09:41:48.208Z,0.88
2023-05-15T09:42:48.236Z,0.84
2023-05-15T09:43:48.845Z,0.84
2023-05-15T09:44:49.445Z,0.77
2023-05-15T09:45:50.152Z,0.80
2023-05-15T09:46:50.752Z,0.80
2023-05-15T09:47:51.545Z,0.84
2023-05-15T09:48:51.573Z,0.95
2023-05-15T09:49:01.221Z,0.88
2023-05-15T09:50:02.163Z,0.95
2023-05-15T09:51:02.756Z,1.02
2023-05-15T09:52:03.706Z,1.09
2023-05-15T09:53:03.764Z,1.12
2023-05-15T09:54:04.302Z,1.23
2023-05-15T09:55:05.007Z,1.27
2023-05-15T09:56:05.328Z,1.41
2023-05-15T09:57:05.967Z,1.52
2023-05-15T09:58:06.661Z,1.52
2023-05-15T09:59:07.241Z,1.44
2023-05-15T10:00:07.337Z,1.41
2023-05-15T10:01:08.247Z,1.55
2023-05-15T10:02:08.690Z,1.44
2023-05-15T10:03:09.486Z,1.34
2023-05-15T10:04:10.132Z,1.16
2023-05-15T10:05:10.917Z,1.09
2023-05-15T10:06:11.835Z,1.16
2023-05-15T10:07:12.503Z,1.02
2023-05-15T10:08:13.245Z,1.37
2023-05-15T10:09:13.831Z,2.30
2023-05-15T10:10:14.556Z,1.34
2023-05-15T10:11:15.227Z,1.94
2023-05-15T10:12:15.784Z,1.77
2023-05-15T10:13:16.482Z,1.44
2023-05-15T10:14:16.613Z,2.09
2023-05-15T10:15:16.840Z,2.37
2023-05-15T10:16:17.500Z,2.37
2023-05-15T10:17:18.125Z,2.37
2023-05-15T10:18:18.687Z,2.37
2023-05-15T10:19:57.797Z,2.30
2023-05-15T10:20:51.188Z,1.23
2023-05-15T10:21:51.980Z,1.44
2023-05-15T10:22:52.642Z,0.98
2023-05-15T10:23:53.267Z,1.55
2023-05-15T10:24:53.545Z,1.77
2023-05-15T10:25:54.397Z,2.26
2023-05-15T10:26:55.137Z,2.30
2023-05-15T10:27:56.063Z,2.37
2023-05-15T10:28:56.853Z,1.27
2023-05-15T10:29:57.463Z,1.16
2023-05-15T10:30:58.222Z,1.09
2023-05-15T10:31:58.563Z,1.09
2023-05-15T10:32:58.615Z,1.16
2023-05-15T10:33:59.459Z,1.30
2023-05-15T10:34:59.541Z,1.77
2023-05-15T10:36:00.464Z,2.30
2023-05-15T10:37:01.393Z,2.37
2023-05-15T10:38:02.287Z,2.37
2023-05-15T10:39:03.254Z,2.37
2023-05-15T10:40:04.019Z,2.30
2023-05-15T10:41:16.650Z,2.19
2023-05-15T10:42:05.284Z,2.16
2023-05-15T10:43:05.692Z,2.30
2023-05-15T10:44:06.491Z,2.30
2023-05-15T10:45:07.158Z,2.01
2023-05-15T10:46:07.255Z,2.23
2023-05-15T10:47:07.972Z,1.55
2023-05-15T10:48:08.664Z,2.16
2023-05-15T10:49:09.038Z,2.41
2023-05-15T10:50:09.620Z,2.19
2023-05-15T10:51:11.179Z,2.30
2023-05-15T10:52:10.574Z,2.37
2023-05-15T10:52:21.333Z,2.37
2023-05-15T10:53:21.050Z,1.20
2023-05-15T10:54:21.333Z,1.66
2023-05-15T10:55:21.985Z,2.12
2023-05-15T10:56:22.082Z,2.16
2023-05-15T10:57:22.524Z,2.09
2023-05-15T10:58:22.518Z,2.37
2023-05-15T10:59:22.952Z,2.37
2023-05-15T11:00:24.177Z,2.37
2023-05-15T11:01:23.814Z,2.19
2023-05-15T11:02:25.043Z,2.16
2023-05-15T11:03:26.056Z,2.12
2023-05-15T11:04:25.434Z,2.16
2023-05-15T11:05:26.082Z,2.09
2023-05-15T11:06:26.053Z,2.09
2023-05-15T11:07:26.763Z,2.16
2023-05-15T11:08:27.489Z,2.26
2023-05-15T11:09:28.189Z,2.19
2023-05-15T11:10:28.526Z,2.01
2023-05-15T11:11:29.353Z,1.73
2023-05-15T11:12:30.063Z,2.19
2023-05-15T11:13:31.007Z,2.01
2023-05-15T11:14:31.747Z,1.37
2023-05-15T11:15:32.670Z,2.30
2023-05-15T11:16:32.837Z,2.12
2023-05-15T11:17:33.547Z,2.12
2023-05-15T11:18:34.288Z,2.26
2023-05-15T11:19:34.987Z,2.26
2023-05-15T11:20:37.080Z,2.19
2023-05-15T11:21:36.228Z,2.12
2023-05-15T11:22:36.873Z,2.12
2023-05-15T11:23:37.529Z,2.16
2023-05-15T11:24:38.206Z,2.12
2023-05-15T11:25:38.820Z,2.09
2023-05-15T11:25:47.504Z,2.05
2023-05-15T11:26:48.343Z,2.12
2023-05-15T11:27:48.968Z,2.16
2023-05-15T11:28:49.636Z,2.26
2023-05-15T11:29:50.400Z,1.30
2023-05-15T11:30:50.515Z,1.23
2023-05-15T11:31:51.227Z,2.16
2023-05-15T11:32:51.578Z,2.26
2023-05-15T11:33:52.504Z,2.30
2023-05-15T11:34:52.211Z,2.26
2023-05-15T11:35:52.790Z,2.12
2023-05-15T11:36:53.487Z,2.16
2023-05-15T11:37:54.060Z,2.09
2023-05-15T11:38:54.691Z,2.12
2023-05-15T11:39:55.403Z,2.09
2023-05-15T11:40:56.200Z,2.09
2023-05-15T11:41:59.149Z,2.16
2023-05-15T11:42:57.679Z,2.16
2023-05-15T11:43:58.343Z,2.12
2023-05-15T11:44:59.163Z,2.19
2023-05-15T11:45:59.911Z,2.30
2023-05-15T11:47:00.685Z,2.19
2023-05-15T11:48:01.195Z,2.09
2023-05-15T11:49:01.276Z,2.26
2023-05-15T11:50:01.990Z,2.30
2023-05-15T11:51:02.738Z,2.09
2023-05-15T11:52:03.675Z,2.09
2023-05-15T11:53:04.418Z,2.26
2023-05-15T11:54:06.334Z,2.26
2023-05-15T11:55:05.565Z,2.16
2023-05-15T11:56:05.827Z,2.05
2023-05-15T11:57:06.348Z,2.05
2023-05-15T11:57:15.972Z,2.05
2023-05-15T11:58:16.364Z,2.05
2023-05-15T11:59:17.197Z,2.12
2023-05-15T12:00:17.791Z,2.05
2023-05-15T12:01:18.777Z,2.05
2023-05-15T12:02:18.797Z,2.01
2023-05-15T12:03:19.644Z,1.27
2023-05-15T12:04:20.503Z,1.30
2023-05-15T12:05:20.915Z,1.80
2023-05-15T12:06:21.982Z,2.12
2023-05-15T12:07:21.895Z,2.12
2023-05-15T12:08:22.647Z,2.12
2023-05-15T12:09:23.596Z,2.16
2023-05-15T12:10:24.687Z,1.66
2023-05-15T12:11:25.546Z,1.34
2023-05-15T12:12:25.886Z,2.26
2023-05-15T12:13:26.549Z,2.12
2023-05-15T12:14:27.269Z,2.12
2023-05-15T12:15:27.983Z,2.16
2023-05-15T12:16:28.745Z,2.12
2023-05-15T12:17:29.274Z,1.16
2023-05-15T12:18:29.472Z,1.37
2023-05-15T12:19:30.381Z,1.30
2023-05-15T12:20:31.118Z,1.02
2023-05-15T12:21:31.731Z,1.02
2023-05-15T12:22:32.462Z,1.16
2023-05-15T12:23:32.521Z,2.26
2023-05-15T12:24:33.096Z,2.30
2023-05-15T12:25:34.096Z,2.41
2023-05-15T12:26:34.248Z,2.37
2023-05-15T12:26:41.848Z,2.37
2023-05-15T12:27:42.668Z,2.37
2023-05-15T12:28:43.787Z,2.41
2023-05-15T12:29:43.583Z,2.26
2023-05-15T12:30:44.307Z,1.66
2023-05-15T12:31:45.128Z,2.41
2023-05-15T12:32:45.780Z,1.80
2023-05-15T12:33:46.368Z,2.41
2023-05-15T12:34:47.043Z,2.37
2023-05-15T12:35:47.913Z,2.37
2023-05-15T12:36:47.886Z,2.37
2023-05-15T12:37:48.609Z,2.41
2023-05-15T12:38:49.282Z,2.37
2023-05-15T12:39:49.814Z,2.37
2023-05-15T12:40:50.456Z,2.23
2023-05-15T12:41:51.235Z,1.69
2023-05-15T12:42:51.619Z,2.30
2023-05-15T12:43:51.611Z,2.26
2023-05-15T12:44:52.121Z,2.19
2023-05-15T12:45:52.675Z,2.37
2023-05-15T12:46:52.883Z,2.05
2023-05-15T12:47:53.531Z,2.41
2023-05-15T12:48:54.161Z,2.44
2023-05-15T12:49:54.164Z,2.41
2023-05-15T12:50:55.057Z,2.41
2023-05-15T12:51:55.921Z,2.41
2023-05-15T12:52:56.869Z,2.44
2023-05-15T12:53:57.621Z,2.19
2023-05-15T12:54:59.619Z,2.44
2023-05-15T12:55:59.466Z,2.44
2023-05-15T12:57:01.967Z,2.44
2023-05-15T12:58:00.784Z,2.37
2023-05-15T12:59:00.792Z,2.41
2023-05-15T12:59:09.468Z,2.44
2023-05-15T13:00:10.109Z,2.37
2023-05-15T13:01:11.033Z,2.19
2023-05-15T13:02:11.531Z,1.02
2023-05-15T13:03:12.252Z,2.16
2023-05-15T13:04:12.197Z,2.30
2023-05-15T13:05:12.710Z,2.37
2023-05-15T13:06:13.384Z,2.44
2023-05-15T13:07:13.581Z,2.44
2023-05-15T13:08:14.304Z,2.37
2023-05-15T13:09:15.188Z,2.37
2023-05-15T13:10:15.826Z,2.37
2023-05-15T13:11:16.436Z,2.41
2023-05-15T13:12:17.248Z,2.16
2023-05-15T13:13:17.436Z,2.44
2023-05-15T13:14:18.344Z,2.44
2023-05-15T13:15:19.136Z,2.44
2023-05-15T13:16:20.087Z,2.44
2023-05-15T13:17:20.477Z,2.44
2023-05-15T13:18:21.410Z,2.44
2023-05-15T13:19:23.112Z,2.44
2023-05-15T13:20:22.827Z,2.44
2023-05-15T13:21:23.770Z,2.37
2023-05-15T13:22:27.994Z,2.44
2023-05-15T13:23:24.122Z,1.52
2023-05-15T13:24:24.986Z,2.44
2023-05-15T13:25:25.661Z,2.44
2023-05-15T13:26:26.452Z,2.44
2023-05-15T13:27:27.161Z,2.44
2023-05-15T13:28:28.040Z,2.26
2023-05-15T13:29:28.872Z,2.30
2023-05-15T13:30:30.328Z,2.44
2023-05-15T13:31:30.082Z,2.44
2023-05-15T13:32:30.804Z,2.44
2023-05-15T13:33:31.378Z,2.37
2023-05-15T13:33:40.986Z,2.41
2023-05-15T13:34:41.624Z,2.44
2023-05-15T13:35:42.308Z,2.44
2023-05-15T13:36:42.688Z,2.44
2023-05-15T13:37:42.777Z,2.44
2023-05-15T13:38:42.916Z,2.44
2023-05-15T13:39:44.771Z,2.44
2023-05-15T13:41:15.547Z,2.41
2023-05-15T13:42:15.710Z,2.37
2023-05-15T13:43:16.696Z,2.37
2023-05-15T13:44:17.606Z,2.30
2023-05-15T13:45:18.536Z,2.37
2023-05-15T13:46:19.257Z,2.30
2023-05-15T13:47:19.821Z,2.41
2023-05-15T13:48:20.558Z,2.41
2023-05-15T13:49:21.272Z,2.37
2023-05-15T13:50:21.889Z,2.37
2023-05-15T13:51:22.548Z,2.30
2023-05-15T13:52:23.239Z,2.37
2023-05-15T13:53:23.919Z,2.30
2023-05-15T13:54:24.660Z,2.26
2023-05-15T13:55:25.313Z,2.37
2023-05-15T13:56:26.090Z,2.37
2023-05-15T13:57:27.090Z,2.26
2023-05-15T13:58:27.725Z,2.30
2023-05-15T13:59:28.357Z,2.19
2023-05-15T14:00:28.942Z,2.16
2023-05-15T14:01:29.850Z,2.30
2023-05-15T14:02:30.608Z,2.26
2023-05-15T14:03:31.760Z,2.16
2023-05-15T14:04:32.220Z,2.09
2023-05-15T14:05:32.876Z,2.12
2023-05-15T14:06:33.451Z,2.19
2023-05-15T14:07:34.403Z,2.12
2023-05-15T14:08:35.440Z,2.12
2023-05-15T14:09:36.299Z,2.30
2023-05-15T14:10:37.155Z,2.23
2023-05-15T14:11:37.983Z,2.09
2023-05-15T14:12:38.742Z,2.09
2023-05-15T14:12:47.419Z,2.12
2023-05-15T14:13:48.007Z,2.16
2023-05-15T14:14:48.792Z,2.01
2023-05-15T14:15:48.867Z,2.16
2023-05-15T14:16:49.678Z,1.98
2023-05-15T14:17:50.489Z,1.84
2023-05-15T14:18:51.313Z,1.80
2023-05-15T14:19:51.862Z,1.84
2023-05-15T14:20:52.440Z,1.98
2023-05-15T14:21:53.419Z,1.87
2023-05-15T14:22:55.143Z,1.41
2023-05-15T14:23:54.753Z,1.87
2023-05-15T14:24:55.426Z,1.80
2023-05-15T14:25:56.005Z,1.73
2023-05-15T14:26:56.334Z,1.87
2023-05-15T14:27:56.940Z,1.77
2023-05-15T14:28:57.076Z,1.84
2023-05-15T14:29:57.337Z,1.77
2023-05-15T14:30:57.785Z,1.77
2023-05-15T14:31:58.431Z,1.77
2023-05-15T14:32:59.287Z,1.77
2023-05-15T14:33:59.904Z,1.69
2023-05-15T14:35:00.561Z,1.77
2023-05-15T14:36:01.425Z,1.66
2023-05-15T14:37:01.700Z,1.62
2023-05-15T14:38:02.289Z,1.66
2023-05-15T14:39:03.310Z,1.62
2023-05-15T14:40:04.125Z,1.55
2023-05-15T14:41:04.744Z,1.34
2023-05-15T14:42:05.369Z,1.62
2023-05-15T14:43:06.011Z,1.62
2023-05-15T14:44:06.761Z,1.62
2023-05-15T14:45:07.345Z,1.59
2023-05-15T14:45:17.061Z,1.62
2023-05-15T14:46:17.292Z,1.52
2023-05-15T14:47:17.697Z,1.62
2023-05-15T14:48:18.419Z,1.55
2023-05-15T14:49:18.500Z,1.62
2023-05-15T14:50:19.345Z,1.62
2023-05-15T14:51:20.225Z,1.52
2023-05-15T14:52:21.101Z,1.16
2023-05-15T14:53:21.902Z,0.70
2023-05-15T14:54:22.634Z,0.66
2023-05-15T14:55:23.167Z,0.70
2023-05-15T14:56:23.603Z,1.27
2023-05-15T14:57:24.453Z,1.41
2023-05-15T14:58:25.103Z,1.41
2023-05-15T14:59:25.093Z,1.37
2023-05-15T15:00:25.994Z,1.41
2023-05-15T15:01:26.550Z,1.09
2023-05-15T15:02:27.302Z,1.12
2023-05-15T15:03:29.937Z,1.16
2023-05-15T15:04:28.923Z,1.16
2023-05-15T15:05:29.577Z,1.16
2023-05-15T15:06:30.194Z,1.20
2023-05-15T15:07:30.895Z,1.30
2023-05-15T15:08:31.519Z,1.37
2023-05-15T15:09:32.131Z,1.30